Terminal Aerodrome Forecast
Issued by NWS

Home | Current Version | Previous Version | Text Only | Print | Product List | Glossary On
Versions: 1 2 3 4 5 6 7 8 9 10 11 12 13 14 15 16 17 18 19 20 21 22
000
FTUS43 KGRB 181132
TAFATW
TAF
KATW 181132Z 1812/1912 20007KT P6SM BKN120
     FM181700 18015G22KT P6SM BKN150
     FM181900 19018G28KT P6SM BKN150 WS020/21055KT
     FM190200 19013G20KT P6SM BKN150 WS020/21050KT
     FM190600 20009KT P6SM BKN200 WS020/24040KT
     FM190800 19005KT P6SM BKN080=

USA.gov is the U.S. government's official web portal to all federal, state and local government web resources and services.